sensor_id;sensor_type;location;lat;lon;timestamp;pressure;altitude;pressure_sealevel;temperature;humidity
8294;BME280;4185;41.506;24.938;2023-02-10T00:02:23;95178.97;;;-7.67;64.71
8294;BME280;4185;41.506;24.938;2023-02-10T00:04:54;95179.72;;;-7.79;64.73
8294;BME280;4185;41.506;24.938;2023-02-10T00:07:21;95178.41;;;-7.85;64.92
8294;BME280;4185;41.506;24.938;2023-02-10T00:09:48;95179.81;;;-7.99;65.55
8294;BME280;4185;41.506;24.938;2023-02-10T00:12:15;95169.72;;;-7.97;65.63
8294;BME280;4185;41.506;24.938;2023-02-10T00:14:42;95175.09;;;-7.94;65.67
8294;BME280;4185;41.506;24.938;2023-02-10T00:17:09;95174.66;;;-7.96;65.44
8294;BME280;4185;41.506;24.938;2023-02-10T00:19:35;95176.72;;;-8.01;65.27
8294;BME280;4185;41.506;24.938;2023-02-10T00:22:03;95175.84;;;-8.05;65.62
8294;BME280;4185;41.506;24.938;2023-02-10T00:24:30;95183.44;;;-8.04;65.75
8294;BME280;4185;41.506;24.938;2023-02-10T00:26:57;95190.00;;;-8.10;65.77
8294;BME280;4185;41.506;24.938;2023-02-10T00:29:24;95196.38;;;-8.11;65.74
8294;BME280;4185;41.506;24.938;2023-02-10T00:31:51;95195.47;;;-8.15;65.74
8294;BME280;4185;41.506;24.938;2023-02-10T00:34:18;95187.91;;;-8.16;66.20
8294;BME280;4185;41.506;24.938;2023-02-10T00:36:48;95199.34;;;-8.12;66.46
8294;BME280;4185;41.506;24.938;2023-02-10T00:39:16;95197.38;;;-8.15;65.82
8294;BME280;4185;41.506;24.938;2023-02-10T00:41:43;95201.97;;;-8.24;65.61
8294;BME280;4185;41.506;24.938;2023-02-10T00:44:10;95203.38;;;-8.39;65.10
8294;BME280;4185;41.506;24.938;2023-02-10T00:46:37;95201.44;;;-8.50;65.44
8294;BME280;4185;41.506;24.938;2023-02-10T00:49:04;95196.69;;;-8.57;66.04
8294;BME280;4185;41.506;24.938;2023-02-10T00:51:31;95188.59;;;-8.52;66.00
8294;BME280;4185;41.506;24.938;2023-02-10T00:53:59;95195.34;;;-8.42;65.64
8294;BME280;4185;41.506;24.938;2023-02-10T00:56:27;95193.88;;;-8.52;65.35
8294;BME280;4185;41.506;24.938;2023-02-10T00:58:54;95196.69;;;-8.57;65.66
8294;BME280;4185;41.506;24.938;2023-02-10T01:01:21;95194.91;;;-8.65;65.60
8294;BME280;4185;41.506;24.938;2023-02-10T01:03:47;95195.31;;;-8.75;66.55
8294;BME280;4185;41.506;24.938;2023-02-10T01:06:14;95190.19;;;-8.71;66.50
8294;BME280;4185;41.506;24.938;2023-02-10T01:08:41;95191.34;;;-8.81;66.36
8294;BME280;4185;41.506;24.938;2023-02-10T01:11:10;95189.16;;;-8.79;66.67
8294;BME280;4185;41.506;24.938;2023-02-10T01:13:39;95188.53;;;-8.76;66.52
8294;BME280;4185;41.506;24.938;2023-02-10T01:16:08;95182.59;;;-8.73;66.28
8294;BME280;4185;41.506;24.938;2023-02-10T01:18:35;95181.31;;;-8.88;66.10
8294;BME280;4185;41.506;24.938;2023-02-10T01:21:06;95184.41;;;-9.06;66.91
8294;BME280;4185;41.506;24.938;2023-02-10T01:23:34;95179.91;;;-9.06;66.95
8294;BME280;4185;41.506;24.938;2023-02-10T01:26:00;95176.00;;;-9.00;66.81
8294;BME280;4185;41.506;24.938;2023-02-10T01:28:27;95183.53;;;-8.90;66.37
8294;BME280;4185;41.506;24.938;2023-02-10T01:30:56;95179.19;;;-8.94;66.09
8294;BME280;4185;41.506;24.938;2023-02-10T01:33:23;95187.09;;;-8.94;66.24
8294;BME280;4185;41.506;24.938;2023-02-10T01:35:49;95184.19;;;-9.01;65.99
8294;BME280;4185;41.506;24.938;2023-02-10T01:38:16;95176.50;;;-9.06;65.63
8294;BME280;4185;41.506;24.938;2023-02-10T01:40:43;95184.31;;;-9.18;65.38
8294;BME280;4185;41.506;24.938;2023-02-10T01:43:14;95186.00;;;-9.34;65.21
8294;BME280;4185;41.506;24.938;2023-02-10T01:45:41;95179.81;;;-9.38;65.96
8294;BME280;4185;41.506;24.938;2023-02-10T01:48:09;95176.94;;;-9.45;66.14
8294;BME280;4185;41.506;24.938;2023-02-10T01:50:39;95171.31;;;-9.35;67.46
8294;BME280;4185;41.506;24.938;2023-02-10T01:53:07;95167.38;;;-9.29;67.27
8294;BME280;4185;41.506;24.938;2023-02-10T01:55:35;95162.13;;;-9.29;66.64
8294;BME280;4185;41.506;24.938;2023-02-10T01:58:07;95162.31;;;-9.34;66.23
8294;BME280;4185;41.506;24.938;2023-02-10T02:00:35;95156.34;;;-9.43;66.64
8294;BME280;4185;41.506;24.938;2023-02-10T02:03:02;95154.22;;;-9.50;66.81
8294;BME280;4185;41.506;24.938;2023-02-10T02:05:33;95156.06;;;-9.50;66.53
8294;BME280;4185;41.506;24.938;2023-02-10T02:08:03;95156.53;;;-9.48;67.12
8294;BME280;4185;41.506;24.938;2023-02-10T02:10:52;95165.50;;;-9.49;66.54
8294;BME280;4185;41.506;24.938;2023-02-10T02:13:28;95155.81;;;-9.57;65.91
8294;BME280;4185;41.506;24.938;2023-02-10T02:16:07;95156.91;;;-9.58;66.76
8294;BME280;4185;41.506;24.938;2023-02-10T02:18:41;95148.25;;;-9.59;66.34
8294;BME280;4185;41.506;24.938;2023-02-10T02:21:45;95155.91;;;-9.45;66.29
8294;BME280;4185;41.506;24.938;2023-02-10T02:24:23;95152.03;;;-9.48;66.24
8294;BME280;4185;41.506;24.938;2023-02-10T02:27:22;95146.91;;;-9.44;66.03
8294;BME280;4185;41.506;24.938;2023-02-10T02:33:01;95136.31;;;-9.56;66.70
8294;BME280;4185;41.506;24.938;2023-02-10T02:35:33;95139.06;;;-9.53;66.25
8294;BME280;4185;41.506;24.938;2023-02-10T02:38:05;95127.66;;;-9.57;66.10
8294;BME280;4185;41.506;24.938;2023-02-10T02:40:32;95120.72;;;-9.61;65.88
8294;BME280;4185;41.506;24.938;2023-02-10T02:42:59;95123.53;;;-9.66;66.39
8294;BME280;4185;41.506;24.938;2023-02-10T02:45:32;95132.06;;;-9.69;66.52
8294;BME280;4185;41.506;24.938;2023-02-10T02:48:11;95122.63;;;-9.70;66.49
8294;BME280;4185;41.506;24.938;2023-02-10T02:50:46;95122.19;;;-9.72;66.13
8294;BME280;4185;41.506;24.938;2023-02-10T02:53:21;95122.38;;;-9.77;66.34
8294;BME280;4185;41.506;24.938;2023-02-10T02:56:01;95114.03;;;-9.79;65.79
8294;BME280;4185;41.506;24.938;2023-02-10T02:58:35;95119.91;;;-9.82;65.50
8294;BME280;4185;41.506;24.938;2023-02-10T03:01:11;95110.41;;;-9.95;65.15
8294;BME280;4185;41.506;24.938;2023-02-10T03:03:40;95109.97;;;-10.06;66.24
8294;BME280;4185;41.506;24.938;2023-02-10T03:06:08;95113.22;;;-10.00;66.46
8294;BME280;4185;41.506;24.938;2023-02-10T03:08:37;95107.06;;;-10.04;66.56
8294;BME280;4185;41.506;24.938;2023-02-10T03:11:05;95104.66;;;-10.09;66.29
8294;BME280;4185;41.506;24.938;2023-02-10T03:13:32;95113.59;;;-10.11;66.57
8294;BME280;4185;41.506;24.938;2023-02-10T03:15:59;95110.50;;;-10.13;66.28
8294;BME280;4185;41.506;24.938;2023-02-10T03:18:26;95106.66;;;-10.15;65.97
8294;BME280;4185;41.506;24.938;2023-02-10T03:20:54;95109.91;;;-10.09;65.88
8294;BME280;4185;41.506;24.938;2023-02-10T03:23:21;95109.38;;;-10.03;65.62
8294;BME280;4185;41.506;24.938;2023-02-10T03:25:48;95113.72;;;-10.07;65.37
8294;BME280;4185;41.506;24.938;2023-02-10T03:28:14;95112.44;;;-10.22;66.02
8294;BME280;4185;41.506;24.938;2023-02-10T03:30:42;95107.03;;;-10.25;65.83
8294;BME280;4185;41.506;24.938;2023-02-10T03:33:11;95115.09;;;-10.30;65.68
8294;BME280;4185;41.506;24.938;2023-02-10T03:35:38;95114.75;;;-10.29;65.80
8294;BME280;4185;41.506;24.938;2023-02-10T03:38:07;95113.97;;;-10.29;66.42
8294;BME280;4185;41.506;24.938;2023-02-10T03:40:33;95107.53;;;-10.32;65.96
8294;BME280;4185;41.506;24.938;2023-02-10T03:43:00;95111.22;;;-10.33;66.07
8294;BME280;4185;41.506;24.938;2023-02-10T03:45:27;95109.09;;;-10.39;65.64
8294;BME280;4185;41.506;24.938;2023-02-10T03:47:54;95113.88;;;-10.41;66.19
8294;BME280;4185;41.506;24.938;2023-02-10T03:50:20;95125.63;;;-10.39;66.29
8294;BME280;4185;41.506;24.938;2023-02-10T03:52:47;95127.59;;;-10.36;66.39
8294;BME280;4185;41.506;24.938;2023-02-10T03:55:15;95127.78;;;-10.41;65.97
8294;BME280;4185;41.506;24.938;2023-02-10T03:57:45;95130.06;;;-10.31;65.77
8294;BME280;4185;41.506;24.938;2023-02-10T04:00:13;95136.09;;;-10.30;65.68
8294;BME280;4185;41.506;24.938;2023-02-10T04:02:40;95143.84;;;-10.34;65.60
8294;BME280;4185;41.506;24.938;2023-02-10T04:05:07;95141.25;;;-10.51;65.30
8294;BME280;4185;41.506;24.938;2023-02-10T04:07:34;95147.63;;;-10.60;65.65
8294;BME280;4185;41.506;24.938;2023-02-10T04:10:00;95141.13;;;-10.63;65.71
8294;BME280;4185;41.506;24.938;2023-02-10T04:12:28;95134.63;;;-10.65;66.37
8294;BME280;4185;41.506;24.938;2023-02-10T04:14:55;95143.13;;;-10.68;66.21
8294;BME280;4185;41.506;24.938;2023-02-10T04:17:22;95124.78;;;-10.77;66.01
8294;BME280;4185;41.506;24.938;2023-02-10T04:19:49;95141.63;;;-10.95;65.66
8294;BME280;4185;41.506;24.938;2023-02-10T04:22:16;95145.03;;;-11.03;65.80
8294;BME280;4185;41.506;24.938;2023-02-10T04:24:43;95141.34;;;-11.02;66.31
8294;BME280;4185;41.506;24.938;2023-02-10T04:27:09;95145.34;;;-10.87;66.50
8294;BME280;4185;41.506;24.938;2023-02-10T04:29:37;95140.53;;;-10.85;66.03
8294;BME280;4185;41.506;24.938;2023-02-10T04:32:06;95146.72;;;-10.81;65.91
8294;BME280;4185;41.506;24.938;2023-02-10T04:34:33;95136.53;;;-10.83;66.26
8294;BME280;4185;41.506;24.938;2023-02-10T04:37:00;95146.56;;;-10.85;66.41
8294;BME280;4185;41.506;24.938;2023-02-10T04:39:27;95134.38;;;-10.89;65.82
8294;BME280;4185;41.506;24.938;2023-02-10T04:41:54;95138.22;;;-10.87;66.23
8294;BME280;4185;41.506;24.938;2023-02-10T04:44:21;95140.38;;;-10.89;65.42
8294;BME280;4185;41.506;24.938;2023-02-10T04:46:49;95137.47;;;-10.96;65.64
8294;BME280;4185;41.506;24.938;2023-02-10T04:49:17;95147.81;;;-10.99;65.76
8294;BME280;4185;41.506;24.938;2023-02-10T04:51:44;95148.13;;;-11.01;65.97
8294;BME280;4185;41.506;24.938;2023-02-10T04:54:10;95151.03;;;-11.02;65.33
8294;BME280;4185;41.506;24.938;2023-02-10T04:56:37;95148.72;;;-11.04;65.88
8294;BME280;4185;41.506;24.938;2023-02-10T04:59:04;95149.97;;;-10.93;65.87
8294;BME280;4185;41.506;24.938;2023-02-10T05:01:32;95145.03;;;-10.86;65.42
8294;BME280;4185;41.506;24.938;2023-02-10T05:04:00;95140.09;;;-10.96;65.10
8294;BME280;4185;41.506;24.938;2023-02-10T05:06:27;95142.72;;;-10.96;65.93
8294;BME280;4185;41.506;24.938;2023-02-10T05:08:54;95149.34;;;-10.90;65.70
8294;BME280;4185;41.506;24.938;2023-02-10T05:11:20;95156.59;;;-10.87;65.70
8294;BME280;4185;41.506;24.938;2023-02-10T05:13:47;95155.97;;;-10.84;65.87
8294;BME280;4185;41.506;24.938;2023-02-10T05:16:14;95156.13;;;-10.89;65.08
8294;BME280;4185;41.506;24.938;2023-02-10T05:18:42;95161.09;;;-10.96;65.68
8294;BME280;4185;41.506;24.938;2023-02-10T05:21:12;95170.66;;;-11.00;65.31
8294;BME280;4185;41.506;24.938;2023-02-10T05:23:39;95160.78;;;-11.03;65.14
8294;BME280;4185;41.506;24.938;2023-02-10T05:26:06;95157.53;;;-11.17;65.54
8294;BME280;4185;41.506;24.938;2023-02-10T05:28:33;95163.56;;;-11.08;65.73
8294;BME280;4185;41.506;24.938;2023-02-10T05:30:59;95164.94;;;-11.10;65.78
8294;BME280;4185;41.506;24.938;2023-02-10T05:33:26;95162.63;;;-11.12;65.54
8294;BME280;4185;41.506;24.938;2023-02-10T05:35:53;95170.81;;;-11.13;65.03
8294;BME280;4185;41.506;24.938;2023-02-10T05:38:21;95166.19;;;-11.16;65.11
8294;BME280;4185;41.506;24.938;2023-02-10T05:40:48;95170.34;;;-11.24;65.25
8294;BME280;4185;41.506;24.938;2023-02-10T05:43:15;95177.16;;;-11.23;65.41
8294;BME280;4185;41.506;24.938;2023-02-10T05:45:42;95174.97;;;-11.29;65.67
8294;BME280;4185;41.506;24.938;2023-02-10T05:48:08;95182.53;;;-11.28;65.64
8294;BME280;4185;41.506;24.938;2023-02-10T05:50:35;95157.84;;;-11.44;65.56
8294;BME280;4185;41.506;24.938;2023-02-10T05:53:05;95179.59;;;-11.35;65.13
8294;BME280;4185;41.506;24.938;2023-02-10T05:55:33;95182.97;;;-11.35;65.77
8294;BME280;4185;41.506;24.938;2023-02-10T05:58:00;95179.00;;;-11.23;65.07
8294;BME280;4185;41.506;24.938;2023-02-10T06:00:27;95180.53;;;-11.14;64.78
8294;BME280;4185;41.506;24.938;2023-02-10T06:02:53;95177.00;;;-11.09;64.76
8294;BME280;4185;41.506;24.938;2023-02-10T06:05:20;95187.78;;;-11.02;64.76
8294;BME280;4185;41.506;24.938;2023-02-10T06:07:47;95188.56;;;-11.02;64.16
8294;BME280;4185;41.506;24.938;2023-02-10T06:10:14;95191.50;;;-10.95;64.16
8294;BME280;4185;41.506;24.938;2023-02-10T06:12:42;95193.66;;;-10.88;64.41
8294;BME280;4185;41.506;24.938;2023-02-10T06:15:09;95187.03;;;-10.86;64.13
8294;BME280;4185;41.506;24.938;2023-02-10T06:17:35;95190.56;;;-10.82;63.92
8294;BME280;4185;41.506;24.938;2023-02-10T06:20:03;95187.16;;;-10.74;64.02
8294;BME280;4185;41.506;24.938;2023-02-10T06:22:29;95185.75;;;-10.71;63.92
8294;BME280;4185;41.506;24.938;2023-02-10T06:24:56;95182.19;;;-10.67;63.74
8294;BME280;4185;41.506;24.938;2023-02-10T06:27:23;95176.03;;;-10.62;64.49
8294;BME280;4185;41.506;24.938;2023-02-10T06:29:51;95186.84;;;-10.55;64.06
8294;BME280;4185;41.506;24.938;2023-02-10T06:32:18;95185.88;;;-10.51;64.54
8294;BME280;4185;41.506;24.938;2023-02-10T06:34:45;95187.25;;;-10.45;64.01
8294;BME280;4185;41.506;24.938;2023-02-10T06:37:12;95184.16;;;-10.38;64.57
8294;BME280;4185;41.506;24.938;2023-02-10T06:39:38;95189.22;;;-10.33;64.24
8294;BME280;4185;41.506;24.938;2023-02-10T06:42:06;95179.66;;;-10.29;63.57
8294;BME280;4185;41.506;24.938;2023-02-10T06:44:33;95188.13;;;-10.24;64.02
8294;BME280;4185;41.506;24.938;2023-02-10T06:47:01;95183.03;;;-10.20;64.28
8294;BME280;4185;41.506;24.938;2023-02-10T06:49:27;95180.97;;;-10.15;64.82
8294;BME280;4185;41.506;24.938;2023-02-10T06:51:54;95173.72;;;-10.09;64.64
8294;BME280;4185;41.506;24.938;2023-02-10T06:54:21;95168.22;;;-9.95;64.39
8294;BME280;4185;41.506;24.938;2023-02-10T06:56:49;95171.13;;;-9.88;64.04
8294;BME280;4185;41.506;24.938;2023-02-10T06:59:15;95173.41;;;-9.78;64.26
8294;BME280;4185;41.506;24.938;2023-02-10T07:01:42;95165.78;;;-9.71;64.50
8294;BME280;4185;41.506;24.938;2023-02-10T07:04:10;95166.06;;;-9.64;64.00
8294;BME280;4185;41.506;24.938;2023-02-10T07:06:37;95170.81;;;-9.58;64.20
8294;BME280;4185;41.506;24.938;2023-02-10T07:09:04;95163.06;;;-9.54;64.18
8294;BME280;4185;41.506;24.938;2023-02-10T07:11:31;95160.38;;;-9.46;64.49
8294;BME280;4185;41.506;24.938;2023-02-10T07:13:58;95164.22;;;-9.43;64.08
8294;BME280;4185;41.506;24.938;2023-02-10T07:16:25;95166.94;;;-9.31;65.00
8294;BME280;4185;41.506;24.938;2023-02-10T07:18:53;95162.19;;;-9.17;64.45
8294;BME280;4185;41.506;24.938;2023-02-10T07:21:21;95159.31;;;-9.04;64.02
8294;BME280;4185;41.506;24.938;2023-02-10T07:23:48;95166.94;;;-8.90;64.62
8294;BME280;4185;41.506;24.938;2023-02-10T07:26:14;95153.25;;;-8.84;64.11
8294;BME280;4185;41.506;24.938;2023-02-10T07:28:43;95161.75;;;-8.78;64.89
8294;BME280;4185;41.506;24.938;2023-02-10T07:31:10;95161.94;;;-8.83;65.19
8294;BME280;4185;41.506;24.938;2023-02-10T07:33:37;95151.25;;;-8.66;64.73
8294;BME280;4185;41.506;24.938;2023-02-10T07:36:05;95149.66;;;-8.46;65.03
8294;BME280;4185;41.506;24.938;2023-02-10T07:38:33;95142.75;;;-8.51;65.63
8294;BME280;4185;41.506;24.938;2023-02-10T07:41:01;95140.34;;;-8.32;65.49
8294;BME280;4185;41.506;24.938;2023-02-10T07:43:28;95142.75;;;-8.15;64.02
8294;BME280;4185;41.506;24.938;2023-02-10T07:45:55;95143.56;;;-8.02;64.50
8294;BME280;4185;41.506;24.938;2023-02-10T07:48:22;95150.03;;;-7.88;64.64
8294;BME280;4185;41.506;24.938;2023-02-10T07:50:49;95142.69;;;-7.82;64.46
8294;BME280;4185;41.506;24.938;2023-02-10T07:53:16;95139.38;;;-7.67;64.14
8294;BME280;4185;41.506;24.938;2023-02-10T07:55:44;95136.19;;;-7.61;64.41
8294;BME280;4185;41.506;24.938;2023-02-10T07:58:11;95128.06;;;-7.56;64.93
8294;BME280;4185;41.506;24.938;2023-02-10T08:00:38;95127.06;;;-7.39;64.41
8294;BME280;4185;41.506;24.938;2023-02-10T08:03:05;95118.03;;;-7.26;64.12
8294;BME280;4185;41.506;24.938;2023-02-10T08:05:35;95120.63;;;-7.14;63.53
8294;BME280;4185;41.506;24.938;2023-02-10T08:08:03;95116.06;;;-7.01;63.95
8294;BME280;4185;41.506;24.938;2023-02-10T08:10:30;95110.75;;;-6.89;63.35
8294;BME280;4185;41.506;24.938;2023-02-10T08:12:58;95113.34;;;-6.77;63.54
8294;BME280;4185;41.506;24.938;2023-02-10T08:15:25;95112.09;;;-6.68;62.73
8294;BME280;4185;41.506;24.938;2023-02-10T08:17:52;95111.69;;;-6.54;62.77
8294;BME280;4185;41.506;24.938;2023-02-10T08:20:19;95109.66;;;-6.45;62.92
8294;BME280;4185;41.506;24.938;2023-02-10T08:22:45;95101.66;;;-6.33;62.97
8294;BME280;4185;41.506;24.938;2023-02-10T08:25:12;95096.66;;;-6.22;62.93
8294;BME280;4185;41.506;24.938;2023-02-10T08:27:39;95100.41;;;-6.08;62.22
8294;BME280;4185;41.506;24.938;2023-02-10T08:30:08;95100.31;;;-5.96;62.55
8294;BME280;4185;41.506;24.938;2023-02-10T08:32:35;95098.69;;;-5.85;62.02
8294;BME280;4185;41.506;24.938;2023-02-10T08:35:02;95094.91;;;-5.68;61.51
8294;BME280;4185;41.506;24.938;2023-02-10T08:37:29;95090.69;;;-5.54;61.09
8294;BME280;4185;41.506;24.938;2023-02-10T08:39:56;95092.53;;;-5.39;61.14
8294;BME280;4185;41.506;24.938;2023-02-10T08:42:23;95089.84;;;-5.23;60.13
8294;BME280;4185;41.506;24.938;2023-02-10T08:44:50;95088.94;;;-5.12;60.00
8294;BME280;4185;41.506;24.938;2023-02-10T08:47:18;95085.09;;;-4.95;59.40
8294;BME280;4185;41.506;24.938;2023-02-10T08:49:45;95082.31;;;-4.83;58.67
8294;BME280;4185;41.506;24.938;2023-02-10T08:52:12;95071.16;;;-4.73;59.10
8294;BME280;4185;41.506;24.938;2023-02-10T08:54:38;95069.94;;;-4.56;58.31
8294;BME280;4185;41.506;24.938;2023-02-10T08:57:05;95072.84;;;-4.42;57.96
8294;BME280;4185;41.506;24.938;2023-02-10T08:59:32;95071.22;;;-4.28;57.30
8294;BME280;4185;41.506;24.938;2023-02-10T09:01:59;95049.97;;;-4.28;56.46
8294;BME280;4185;41.506;24.938;2023-02-10T09:04:27;95062.53;;;-4.02;55.36
8294;BME280;4185;41.506;24.938;2023-02-10T09:06:54;95061.31;;;-3.86;54.49
8294;BME280;4185;41.506;24.938;2023-02-10T09:09:22;95059.31;;;-3.66;55.19
8294;BME280;4185;41.506;24.938;2023-02-10T09:11:52;95059.22;;;-3.47;53.00
8294;BME280;4185;41.506;24.938;2023-02-10T09:14:20;95055.22;;;-3.34;53.58
8294;BME280;4185;41.506;24.938;2023-02-10T09:16:47;95065.38;;;-3.13;52.51
8294;BME280;4185;41.506;24.938;2023-02-10T09:19:15;95064.00;;;-3.00;50.58
8294;BME280;4185;41.506;24.938;2023-02-10T09:21:44;95058.38;;;-2.95;49.57
8294;BME280;4185;41.506;24.938;2023-02-10T09:24:11;95052.81;;;-2.83;50.16
8294;BME280;4185;41.506;24.938;2023-02-10T09:26:37;95061.28;;;-2.74;49.93
8294;BME280;4185;41.506;24.938;2023-02-10T09:29:04;95061.03;;;-2.62;49.24
8294;BME280;4185;41.506;24.938;2023-02-10T09:31:33;95046.31;;;-2.53;49.05
8294;BME280;4185;41.506;24.938;2023-02-10T09:34:00;95057.13;;;-2.38;48.50
8294;BME280;4185;41.506;24.938;2023-02-10T09:36:26;95051.88;;;-2.28;48.15
8294;BME280;4185;41.506;24.938;2023-02-10T09:38:56;95036.09;;;-2.10;47.47
8294;BME280;4185;41.506;24.938;2023-02-10T09:41:39;95037.31;;;-1.97;47.36
8294;BME280;4185;41.506;24.938;2023-02-10T09:44:13;95032.53;;;-1.81;46.17
8294;BME280;4185;41.506;24.938;2023-02-10T09:46:58;95042.53;;;-1.64;45.39
8294;BME280;4185;41.506;24.938;2023-02-10T09:49:50;95041.88;;;-1.47;44.77
8294;BME280;4185;41.506;24.938;2023-02-10T09:52:27;95029.03;;;-1.31;43.72
8294;BME280;4185;41.506;24.938;2023-02-10T09:54:58;95020.75;;;-1.15;43.38
8294;BME280;4185;41.506;24.938;2023-02-10T09:57:30;95017.38;;;-1.02;43.75
8294;BME280;4185;41.506;24.938;2023-02-10T10:00:00;95009.03;;;-0.90;42.82
8294;BME280;4185;41.506;24.938;2023-02-10T10:02:30;95012.50;;;-0.79;42.81
8294;BME280;4185;41.506;24.938;2023-02-10T10:04:59;95007.22;;;-0.65;42.71
8294;BME280;4185;41.506;24.938;2023-02-10T10:07:30;94993.16;;;-0.51;42.30
8294;BME280;4185;41.506;24.938;2023-02-10T10:10:02;95000.41;;;-0.34;41.80
8294;BME280;4185;41.506;24.938;2023-02-10T10:12:30;94985.94;;;-0.16;39.78
8294;BME280;4185;41.506;24.938;2023-02-10T10:14:57;94985.94;;;-0.02;39.82
8294;BME280;4185;41.506;24.938;2023-02-10T10:17:38;94978.69;;;0.17;40.88
8294;BME280;4185;41.506;24.938;2023-02-10T10:20:30;94963.78;;;0.30;39.76
8294;BME280;4185;41.506;24.938;2023-02-10T10:23:11;94966.78;;;0.49;40.08
8294;BME280;4185;41.506;24.938;2023-02-10T10:25:55;94966.00;;;0.63;39.32
8294;BME280;4185;41.506;24.938;2023-02-10T10:28:34;94967.47;;;0.78;39.04
8294;BME280;4185;41.506;24.938;2023-02-10T10:31:08;94961.69;;;0.97;38.63
8294;BME280;4185;41.506;24.938;2023-02-10T10:33:40;94967.34;;;1.13;38.33
8294;BME280;4185;41.506;24.938;2023-02-10T10:36:14;94963.44;;;1.32;37.55
8294;BME280;4185;41.506;24.938;2023-02-10T10:38:43;94965.66;;;1.47;38.25
8294;BME280;4185;41.506;24.938;2023-02-10T10:41:31;94955.97;;;1.67;38.03
8294;BME280;4185;41.506;24.938;2023-02-10T10:44:16;94950.81;;;1.87;37.81
8294;BME280;4185;41.506;24.938;2023-02-10T10:46:46;94947.59;;;2.09;39.29
8294;BME280;4185;41.506;24.938;2023-02-10T10:49:13;94953.56;;;2.27;38.47
8294;BME280;4185;41.506;24.938;2023-02-10T10:51:40;94953.06;;;2.39;37.35
8294;BME280;4185;41.506;24.938;2023-02-10T10:54:12;94949.88;;;2.52;37.28
8294;BME280;4185;41.506;24.938;2023-02-10T10:56:44;94944.84;;;2.57;36.97
8294;BME280;4185;41.506;24.938;2023-02-10T10:59:16;94943.72;;;2.55;36.53
8294;BME280;4185;41.506;24.938;2023-02-10T11:01:46;94947.84;;;2.63;36.54
8294;BME280;4185;41.506;24.938;2023-02-10T11:04:14;94932.38;;;2.77;35.85
8294;BME280;4185;41.506;24.938;2023-02-10T11:06:43;94930.22;;;2.95;34.77
8294;BME280;4185;41.506;24.938;2023-02-10T11:09:21;94927.38;;;3.09;34.64
8294;BME280;4185;41.506;24.938;2023-02-10T11:11:50;94927.63;;;3.18;34.75
8294;BME280;4185;41.506;24.938;2023-02-10T11:14:20;94925.03;;;3.41;34.36
8294;BME280;4185;41.506;24.938;2023-02-10T11:16:49;94922.44;;;3.61;34.94
8294;BME280;4185;41.506;24.938;2023-02-10T11:19:19;94920.13;;;3.86;33.46
8294;BME280;4185;41.506;24.938;2023-02-10T11:21:46;94912.44;;;3.88;33.06
8294;BME280;4185;41.506;24.938;2023-02-10T11:24:19;94915.31;;;4.01;31.49
8294;BME280;4185;41.506;24.938;2023-02-10T11:26:57;94912.00;;;4.13;33.12
8294;BME280;4185;41.506;24.938;2023-02-10T11:29:25;94908.56;;;4.35;32.72
8294;BME280;4185;41.506;24.938;2023-02-10T11:31:53;94908.03;;;4.63;32.07
8294;BME280;4185;41.506;24.938;2023-02-10T11:34:23;94903.34;;;4.67;31.31
8294;BME280;4185;41.506;24.938;2023-02-10T11:36:51;94899.06;;;4.89;30.18
8294;BME280;4185;41.506;24.938;2023-02-10T11:39:22;94889.97;;;5.03;30.43
8294;BME280;4185;41.506;24.938;2023-02-10T11:41:50;94879.47;;;5.09;29.84
8294;BME280;4185;41.506;24.938;2023-02-10T11:44:25;94888.69;;;5.08;28.62
8294;BME280;4185;41.506;24.938;2023-02-10T11:46:55;94888.88;;;5.01;28.37
8294;BME280;4185;41.506;24.938;2023-02-10T11:49:22;94879.97;;;5.20;28.10
8294;BME280;4185;41.506;24.938;2023-02-10T11:51:54;94875.06;;;5.50;27.85
8294;BME280;4185;41.506;24.938;2023-02-10T11:54:22;94867.59;;;5.58;27.79
8294;BME280;4185;41.506;24.938;2023-02-10T11:57:00;94870.28;;;5.74;27.35
8294;BME280;4185;41.506;24.938;2023-02-10T11:59:55;94852.81;;;5.98;26.38
8294;BME280;4185;41.506;24.938;2023-02-10T12:02:34;94853.09;;;6.16;26.69
8294;BME280;4185;41.506;24.938;2023-02-10T12:05:19;94845.63;;;6.36;26.02
8294;BME280;4185;41.506;24.938;2023-02-10T12:07:58;94851.47;;;6.63;24.82
8294;BME280;4185;41.506;24.938;2023-02-10T12:10:33;94846.59;;;6.99;25.13
8294;BME280;4185;41.506;24.938;2023-02-10T12:13:15;94843.59;;;7.22;24.81
8294;BME280;4185;41.506;24.938;2023-02-10T12:15:51;94843.50;;;7.13;23.38
8294;BME280;4185;41.506;24.938;2023-02-10T12:18:37;94835.50;;;7.35;24.39
8294;BME280;4185;41.506;24.938;2023-02-10T12:21:21;94841.25;;;7.37;22.57
8294;BME280;4185;41.506;24.938;2023-02-10T12:24:06;94836.59;;;7.63;23.99
8294;BME280;4185;41.506;24.938;2023-02-10T12:26:40;94833.97;;;7.84;23.87
8294;BME280;4185;41.506;24.938;2023-02-10T12:29:23;94828.69;;;7.81;23.90
8294;BME280;4185;41.506;24.938;2023-02-10T12:32:02;94822.69;;;7.98;23.73
8294;BME280;4185;41.506;24.938;2023-02-10T12:34:52;94823.16;;;8.31;23.57
8294;BME280;4185;41.506;24.938;2023-02-10T12:37:34;94822.25;;;8.46;22.70
8294;BME280;4185;41.506;24.938;2023-02-10T12:40:22;94823.94;;;8.19;22.41
8294;BME280;4185;41.506;24.938;2023-02-10T12:43:00;94828.63;;;8.06;22.75
8294;BME280;4185;41.506;24.938;2023-02-10T12:45:32;94819.50;;;8.12;23.35
8294;BME280;4185;41.506;24.938;2023-02-10T12:48:14;94818.72;;;8.37;24.20
8294;BME280;4185;41.506;24.938;2023-02-10T12:50:58;94814.94;;;8.56;23.31
8294;BME280;4185;41.506;24.938;2023-02-10T12:53:30;94809.50;;;8.56;23.12
8294;BME280;4185;41.506;24.938;2023-02-10T12:56:03;94813.56;;;8.73;23.56
8294;BME280;4185;41.506;24.938;2023-02-10T12:58:35;94812.06;;;8.72;22.55
8294;BME280;4185;41.506;24.938;2023-02-10T13:01:10;94816.34;;;8.82;23.03
8294;BME280;4185;41.506;24.938;2023-02-10T13:03:42;94813.38;;;8.89;22.88
8294;BME280;4185;41.506;24.938;2023-02-10T13:06:25;94816.41;;;8.91;22.98
8294;BME280;4185;41.506;24.938;2023-02-10T13:08:55;94812.78;;;8.94;23.26
8294;BME280;4185;41.506;24.938;2023-02-10T13:11:31;94824.38;;;8.95;23.09
8294;BME280;4185;41.506;24.938;2023-02-10T13:14:02;94808.97;;;9.13;22.98
8294;BME280;4185;41.506;24.938;2023-02-10T13:16:32;94819.88;;;9.22;22.60
8294;BME280;4185;41.506;24.938;2023-02-10T13:19:06;94824.69;;;9.18;22.93
8294;BME280;4185;41.506;24.938;2023-02-10T13:21:40;94817.72;;;9.48;22.91
8294;BME280;4185;41.506;24.938;2023-02-10T13:24:15;94826.09;;;9.32;22.57
8294;BME280;4185;41.506;24.938;2023-02-10T13:26:53;94826.63;;;9.48;22.00
8294;BME280;4185;41.506;24.938;2023-02-10T13:29:31;94833.47;;;9.71;23.41